sensor_id;sensor_type;location;lat;lon;timestamp;P1;durP1;ratioP1;P2;durP2;ratioP2
14187;SDS011;7175;51.978;5.330;2023-02-03T00:00:30;53.50;;;49.70;;
14187;SDS011;7175;51.978;5.330;2023-02-03T00:02:58;53.00;;;49.30;;
14187;SDS011;7175;51.978;5.330;2023-02-03T00:05:26;54.50;;;50.70;;
14187;SDS011;7175;51.978;5.330;2023-02-03T00:07:55;55.00;;;51.20;;
14187;SDS011;7175;51.978;5.330;2023-02-03T00:10:24;55.47;;;51.67;;
14187;SDS011;7175;51.978;5.330;2023-02-03T00:12:52;55.03;;;51.17;;
14187;SDS011;7175;51.978;5.330;2023-02-03T00:15:21;55.50;;;51.60;;
14187;SDS011;7175;51.978;5.330;2023-02-03T00:17:50;57.40;;;53.40;;
14187;SDS011;7175;51.978;5.330;2023-02-03T00:20:19;54.90;;;51.00;;
14187;SDS011;7175;51.978;5.330;2023-02-03T00:22:47;54.40;;;50.60;;
14187;SDS011;7175;51.978;5.330;2023-02-03T00:25:15;53.83;;;49.93;;
14187;SDS011;7175;51.978;5.330;2023-02-03T00:27:44;54.37;;;50.57;;
14187;SDS011;7175;51.978;5.330;2023-02-03T00:30:12;52.87;;;49.17;;
14187;SDS011;7175;51.978;5.330;2023-02-03T00:32:40;51.43;;;47.80;;
14187;SDS011;7175;51.978;5.330;2023-02-03T00:35:10;53.13;;;49.43;;
14187;SDS011;7175;51.978;5.330;2023-02-03T00:37:38;53.20;;;49.50;;
14187;SDS011;7175;51.978;5.330;2023-02-03T00:40:06;54.83;;;51.03;;
14187;SDS011;7175;51.978;5.330;2023-02-03T00:42:34;54.13;;;50.33;;
14187;SDS011;7175;51.978;5.330;2023-02-03T00:45:03;53.80;;;50.00;;
14187;SDS011;7175;51.978;5.330;2023-02-03T00:47:31;55.90;;;52.00;;
14187;SDS011;7175;51.978;5.330;2023-02-03T00:49:59;55.77;;;51.97;;
14187;SDS011;7175;51.978;5.330;2023-02-03T00:52:29;54.30;;;50.60;;
14187;SDS011;7175;51.978;5.330;2023-02-03T00:54:57;55.30;;;51.50;;
14187;SDS011;7175;51.978;5.330;2023-02-03T00:57:25;60.03;;;54.10;;
14187;SDS011;7175;51.978;5.330;2023-02-03T00:59:53;54.30;;;50.50;;
14187;SDS011;7175;51.978;5.330;2023-02-03T01:02:21;53.20;;;49.50;;
14187;SDS011;7175;51.978;5.330;2023-02-03T01:04:49;52.67;;;48.97;;
14187;SDS011;7175;51.978;5.330;2023-02-03T01:07:17;52.37;;;48.67;;
14187;SDS011;7175;51.978;5.330;2023-02-03T01:09:46;53.43;;;49.73;;
14187;SDS011;7175;51.978;5.330;2023-02-03T01:12:15;52.77;;;49.13;;
14187;SDS011;7175;51.978;5.330;2023-02-03T01:14:43;53.53;;;49.83;;
14187;SDS011;7175;51.978;5.330;2023-02-03T01:17:11;53.40;;;49.70;;
14187;SDS011;7175;51.978;5.330;2023-02-03T01:19:39;54.00;;;50.30;;
14187;SDS011;7175;51.978;5.330;2023-02-03T01:22:07;53.27;;;49.57;;
14187;SDS011;7175;51.978;5.330;2023-02-03T01:24:35;53.00;;;49.30;;
14187;SDS011;7175;51.978;5.330;2023-02-03T01:27:04;53.30;;;49.60;;
14187;SDS011;7175;51.978;5.330;2023-02-03T01:29:32;56.63;;;52.70;;
14187;SDS011;7175;51.978;5.330;2023-02-03T01:32:00;51.90;;;48.30;;
14187;SDS011;7175;51.978;5.330;2023-02-03T01:34:29;49.27;;;45.83;;
14187;SDS011;7175;51.978;5.330;2023-02-03T01:36:57;49.47;;;46.07;;
14187;SDS011;7175;51.978;5.330;2023-02-03T01:39:25;52.17;;;48.57;;
14187;SDS011;7175;51.978;5.330;2023-02-03T01:41:53;51.53;;;47.97;;
14187;SDS011;7175;51.978;5.330;2023-02-03T01:44:37;52.53;;;48.93;;
14187;SDS011;7175;51.978;5.330;2023-02-03T01:47:10;51.07;;;47.57;;
14187;SDS011;7175;51.978;5.330;2023-02-03T01:49:41;51.87;;;48.27;;
14187;SDS011;7175;51.978;5.330;2023-02-03T01:52:13;51.03;;;47.53;;
14187;SDS011;7175;51.978;5.330;2023-02-03T01:54:43;50.33;;;46.83;;
14187;SDS011;7175;51.978;5.330;2023-02-03T01:57:15;50.60;;;47.10;;
14187;SDS011;7175;51.978;5.330;2023-02-03T01:59:48;51.00;;;47.50;;
14187;SDS011;7175;51.978;5.330;2023-02-03T02:02:18;50.77;;;47.27;;
14187;SDS011;7175;51.978;5.330;2023-02-03T02:04:49;51.37;;;47.87;;
14187;SDS011;7175;51.978;5.330;2023-02-03T02:07:22;51.17;;;47.67;;
14187;SDS011;7175;51.978;5.330;2023-02-03T02:09:50;51.87;;;48.27;;
14187;SDS011;7175;51.978;5.330;2023-02-03T02:12:18;51.63;;;48.03;;
14187;SDS011;7175;51.978;5.330;2023-02-03T02:14:48;49.93;;;46.53;;
14187;SDS011;7175;51.978;5.330;2023-02-03T02:17:20;50.10;;;46.60;;
14187;SDS011;7175;51.978;5.330;2023-02-03T02:20:09;49.10;;;45.70;;
14187;SDS011;7175;51.978;5.330;2023-02-03T02:23:11;48.43;;;45.10;;
14187;SDS011;7175;51.978;5.330;2023-02-03T02:26:09;47.43;;;44.13;;
14187;SDS011;7175;51.978;5.330;2023-02-03T02:32:19;47.47;;;44.17;;
14187;SDS011;7175;51.978;5.330;2023-02-03T02:34:56;49.13;;;45.83;;
14187;SDS011;7175;51.978;5.330;2023-02-03T02:37:34;48.97;;;45.67;;
14187;SDS011;7175;51.978;5.330;2023-02-03T02:40:13;50.10;;;46.70;;
14187;SDS011;7175;51.978;5.330;2023-02-03T02:42:51;48.50;;;45.20;;
14187;SDS011;7175;51.978;5.330;2023-02-03T02:45:26;48.90;;;45.60;;
14187;SDS011;7175;51.978;5.330;2023-02-03T02:48:00;48.60;;;45.30;;
14187;SDS011;7175;51.978;5.330;2023-02-03T02:50:33;49.23;;;45.93;;
14187;SDS011;7175;51.978;5.330;2023-02-03T02:53:07;50.73;;;47.33;;
14187;SDS011;7175;51.978;5.330;2023-02-03T02:55:38;48.53;;;45.23;;
14187;SDS011;7175;51.978;5.330;2023-02-03T02:58:10;48.53;;;45.13;;
14187;SDS011;7175;51.978;5.330;2023-02-03T03:00:40;47.50;;;44.20;;
14187;SDS011;7175;51.978;5.330;2023-02-03T03:03:16;45.47;;;42.33;;
14187;SDS011;7175;51.978;5.330;2023-02-03T03:05:47;46.20;;;43.00;;
14187;SDS011;7175;51.978;5.330;2023-02-03T03:08:18;46.07;;;42.87;;
14187;SDS011;7175;51.978;5.330;2023-02-03T03:10:52;48.77;;;45.47;;
14187;SDS011;7175;51.978;5.330;2023-02-03T03:13:29;48.50;;;45.20;;
14187;SDS011;7175;51.978;5.330;2023-02-03T03:16:00;47.47;;;44.17;;
14187;SDS011;7175;51.978;5.330;2023-02-03T03:18:35;48.23;;;44.93;;
14187;SDS011;7175;51.978;5.330;2023-02-03T03:21:09;47.17;;;43.87;;
14187;SDS011;7175;51.978;5.330;2023-02-03T03:23:42;49.20;;;45.80;;
14187;SDS011;7175;51.978;5.330;2023-02-03T03:26:16;48.47;;;45.07;;
14187;SDS011;7175;51.978;5.330;2023-02-03T03:28:51;48.87;;;45.47;;
14187;SDS011;7175;51.978;5.330;2023-02-03T03:31:23;48.70;;;45.30;;
14187;SDS011;7175;51.978;5.330;2023-02-03T03:33:53;47.93;;;44.53;;
14187;SDS011;7175;51.978;5.330;2023-02-03T03:36:22;49.80;;;46.30;;
14187;SDS011;7175;51.978;5.330;2023-02-03T03:38:53;49.90;;;46.50;;
14187;SDS011;7175;51.978;5.330;2023-02-03T03:41:29;52.20;;;47.00;;
14187;SDS011;7175;51.978;5.330;2023-02-03T03:44:04;49.37;;;45.97;;
14187;SDS011;7175;51.978;5.330;2023-02-03T03:46:39;49.07;;;45.77;;
14187;SDS011;7175;51.978;5.330;2023-02-03T03:49:14;49.00;;;45.60;;
14187;SDS011;7175;51.978;5.330;2023-02-03T03:51:45;48.13;;;44.83;;
14187;SDS011;7175;51.978;5.330;2023-02-03T03:54:17;49.40;;;46.00;;
14187;SDS011;7175;51.978;5.330;2023-02-03T03:56:49;48.70;;;45.30;;
14187;SDS011;7175;51.978;5.330;2023-02-03T03:59:24;48.67;;;45.37;;
14187;SDS011;7175;51.978;5.330;2023-02-03T04:01:55;49.67;;;46.27;;
14187;SDS011;7175;51.978;5.330;2023-02-03T04:04:31;50.63;;;47.23;;
14187;SDS011;7175;51.978;5.330;2023-02-03T04:07:01;51.00;;;47.50;;
14187;SDS011;7175;51.978;5.330;2023-02-03T04:09:29;49.27;;;45.93;;
14187;SDS011;7175;51.978;5.330;2023-02-03T04:11:58;48.63;;;45.33;;
14187;SDS011;7175;51.978;5.330;2023-02-03T04:14:29;48.30;;;45.00;;
14187;SDS011;7175;51.978;5.330;2023-02-03T04:16:58;48.03;;;44.73;;
14187;SDS011;7175;51.978;5.330;2023-02-03T04:19:27;46.90;;;43.63;;
14187;SDS011;7175;51.978;5.330;2023-02-03T04:21:56;46.83;;;43.63;;
14187;SDS011;7175;51.978;5.330;2023-02-03T04:24:24;46.60;;;43.40;;
14187;SDS011;7175;51.978;5.330;2023-02-03T04:26:52;48.20;;;44.90;;
14187;SDS011;7175;51.978;5.330;2023-02-03T04:29:21;46.87;;;43.60;;
14187;SDS011;7175;51.978;5.330;2023-02-03T04:31:49;47.13;;;43.87;;
14187;SDS011;7175;51.978;5.330;2023-02-03T04:34:17;47.10;;;43.87;;
14187;SDS011;7175;51.978;5.330;2023-02-03T04:36:45;47.23;;;43.93;;
14187;SDS011;7175;51.978;5.330;2023-02-03T04:39:14;47.90;;;44.60;;
14187;SDS011;7175;51.978;5.330;2023-02-03T04:41:42;47.80;;;44.50;;
14187;SDS011;7175;51.978;5.330;2023-02-03T04:44:10;47.87;;;44.60;;
14187;SDS011;7175;51.978;5.330;2023-02-03T04:46:38;47.20;;;44.00;;
14187;SDS011;7175;51.978;5.330;2023-02-03T04:49:06;48.30;;;45.00;;
14187;SDS011;7175;51.978;5.330;2023-02-03T04:51:36;46.97;;;43.77;;
14187;SDS011;7175;51.978;5.330;2023-02-03T04:54:04;45.53;;;42.33;;
14187;SDS011;7175;51.978;5.330;2023-02-03T04:56:34;46.07;;;42.87;;
14187;SDS011;7175;51.978;5.330;2023-02-03T04:59:02;45.73;;;42.53;;
14187;SDS011;7175;51.978;5.330;2023-02-03T05:01:30;45.77;;;42.57;;
14187;SDS011;7175;51.978;5.330;2023-02-03T05:03:58;48.10;;;44.80;;
14187;SDS011;7175;51.978;5.330;2023-02-03T05:06:27;46.57;;;43.30;;
14187;SDS011;7175;51.978;5.330;2023-02-03T05:08:57;46.63;;;43.37;;
14187;SDS011;7175;51.978;5.330;2023-02-03T05:11:25;47.37;;;44.07;;
14187;SDS011;7175;51.978;5.330;2023-02-03T05:13:55;48.90;;;45.50;;
14187;SDS011;7175;51.978;5.330;2023-02-03T05:16:24;46.00;;;42.70;;
14187;SDS011;7175;51.978;5.330;2023-02-03T05:18:52;46.70;;;43.40;;
14187;SDS011;7175;51.978;5.330;2023-02-03T05:21:20;48.33;;;44.83;;
14187;SDS011;7175;51.978;5.330;2023-02-03T05:23:48;45.87;;;42.67;;
14187;SDS011;7175;51.978;5.330;2023-02-03T05:26:16;46.57;;;43.37;;
14187;SDS011;7175;51.978;5.330;2023-02-03T05:28:44;46.77;;;43.57;;
14187;SDS011;7175;51.978;5.330;2023-02-03T05:31:13;44.90;;;41.70;;
14187;SDS011;7175;51.978;5.330;2023-02-03T05:33:41;42.23;;;39.13;;
14187;SDS011;7175;51.978;5.330;2023-02-03T05:36:09;43.40;;;40.30;;
14187;SDS011;7175;51.978;5.330;2023-02-03T05:38:38;43.20;;;40.10;;
14187;SDS011;7175;51.978;5.330;2023-02-03T05:41:08;41.83;;;38.77;;
14187;SDS011;7175;51.978;5.330;2023-02-03T05:43:54;42.90;;;39.80;;
14187;SDS011;7175;51.978;5.330;2023-02-03T05:46:23;41.87;;;38.87;;
14187;SDS011;7175;51.978;5.330;2023-02-03T05:48:52;44.13;;;41.03;;
14187;SDS011;7175;51.978;5.330;2023-02-03T05:51:20;42.83;;;39.73;;
14187;SDS011;7175;51.978;5.330;2023-02-03T05:53:48;42.53;;;39.43;;
14187;SDS011;7175;51.978;5.330;2023-02-03T05:56:16;44.23;;;40.77;;
14187;SDS011;7175;51.978;5.330;2023-02-03T05:58:44;41.83;;;38.83;;
14187;SDS011;7175;51.978;5.330;2023-02-03T06:01:12;41.07;;;38.07;;
14187;SDS011;7175;51.978;5.330;2023-02-03T06:03:42;40.43;;;37.43;;
14187;SDS011;7175;51.978;5.330;2023-02-03T06:06:11;41.80;;;38.70;;
14187;SDS011;7175;51.978;5.330;2023-02-03T06:08:40;42.07;;;38.97;;
14187;SDS011;7175;51.978;5.330;2023-02-03T06:11:08;42.80;;;39.70;;
14187;SDS011;7175;51.978;5.330;2023-02-03T06:13:36;41.60;;;38.50;;
14187;SDS011;7175;51.978;5.330;2023-02-03T06:16:04;40.77;;;37.77;;
14187;SDS011;7175;51.978;5.330;2023-02-03T06:18:33;40.50;;;37.50;;
14187;SDS011;7175;51.978;5.330;2023-02-03T06:21:02;41.40;;;38.40;;
14187;SDS011;7175;51.978;5.330;2023-02-03T06:23:31;42.00;;;38.90;;
14187;SDS011;7175;51.978;5.330;2023-02-03T06:25:59;42.07;;;38.97;;
14187;SDS011;7175;51.978;5.330;2023-02-03T06:28:27;42.07;;;38.73;;
14187;SDS011;7175;51.978;5.330;2023-02-03T06:30:55;42.33;;;39.13;;
14187;SDS011;7175;51.978;5.330;2023-02-03T06:33:23;41.77;;;38.67;;
14187;SDS011;7175;51.978;5.330;2023-02-03T06:35:52;42.30;;;39.20;;
14187;SDS011;7175;51.978;5.330;2023-02-03T06:38:21;40.33;;;37.33;;
14187;SDS011;7175;51.978;5.330;2023-02-03T06:40:50;40.57;;;37.57;;
14187;SDS011;7175;51.978;5.330;2023-02-03T06:43:18;41.23;;;38.13;;
14187;SDS011;7175;51.978;5.330;2023-02-03T06:45:47;41.40;;;38.30;;
14187;SDS011;7175;51.978;5.330;2023-02-03T06:48:16;40.30;;;37.20;;
14187;SDS011;7175;51.978;5.330;2023-02-03T06:50:44;38.30;;;35.37;;
14187;SDS011;7175;51.978;5.330;2023-02-03T06:53:14;38.87;;;35.87;;
14187;SDS011;7175;51.978;5.330;2023-02-03T06:55:43;40.07;;;36.97;;
14187;SDS011;7175;51.978;5.330;2023-02-03T06:58:13;39.27;;;36.27;;
14187;SDS011;7175;51.978;5.330;2023-02-03T07:00:41;40.97;;;37.77;;
14187;SDS011;7175;51.978;5.330;2023-02-03T07:03:09;40.17;;;37.07;;
14187;SDS011;7175;51.978;5.330;2023-02-03T07:05:37;39.43;;;36.43;;
14187;SDS011;7175;51.978;5.330;2023-02-03T07:08:06;39.40;;;36.40;;
14187;SDS011;7175;51.978;5.330;2023-02-03T07:10:34;42.92;;;39.72;;
14187;SDS011;7175;51.978;5.330;2023-02-03T07:13:03;44.35;;;41.05;;
14187;SDS011;7175;51.978;5.330;2023-02-03T07:15:32;44.47;;;41.17;;
14187;SDS011;7175;51.978;5.330;2023-02-03T07:18:01;41.00;;;38.03;;
14187;SDS011;7175;51.978;5.330;2023-02-03T07:20:29;42.27;;;39.07;;
14187;SDS011;7175;51.978;5.330;2023-02-03T07:22:58;40.10;;;37.20;;
14187;SDS011;7175;51.978;5.330;2023-02-03T07:25:26;38.70;;;35.90;;
14187;SDS011;7175;51.978;5.330;2023-02-03T07:27:54;37.20;;;34.30;;
14187;SDS011;7175;51.978;5.330;2023-02-03T07:30:24;37.37;;;34.47;;
14187;SDS011;7175;51.978;5.330;2023-02-03T07:32:53;37.33;;;34.42;;
14187;SDS011;7175;51.978;5.330;2023-02-03T07:35:21;37.17;;;34.27;;
14187;SDS011;7175;51.978;5.330;2023-02-03T07:37:49;36.53;;;33.63;;
14187;SDS011;7175;51.978;5.330;2023-02-03T07:40:17;34.80;;;32.00;;
14187;SDS011;7175;51.978;5.330;2023-02-03T07:42:46;35.17;;;32.37;;
14187;SDS011;7175;51.978;5.330;2023-02-03T07:45:15;35.80;;;32.90;;
14187;SDS011;7175;51.978;5.330;2023-02-03T07:47:46;33.87;;;31.07;;
14187;SDS011;7175;51.978;5.330;2023-02-03T07:50:14;34.17;;;31.37;;
14187;SDS011;7175;51.978;5.330;2023-02-03T07:52:42;34.20;;;31.40;;
14187;SDS011;7175;51.978;5.330;2023-02-03T07:55:10;33.07;;;30.27;;
14187;SDS011;7175;51.978;5.330;2023-02-03T07:57:38;33.20;;;30.43;;
14187;SDS011;7175;51.978;5.330;2023-02-03T08:00:09;33.63;;;30.83;;
14187;SDS011;7175;51.978;5.330;2023-02-03T08:02:39;35.77;;;32.87;;
14187;SDS011;7175;51.978;5.330;2023-02-03T08:05:09;37.43;;;33.67;;
14187;SDS011;7175;51.978;5.330;2023-02-03T08:07:38;36.73;;;33.73;;
14187;SDS011;7175;51.978;5.330;2023-02-03T08:10:06;34.27;;;31.37;;
14187;SDS011;7175;51.978;5.330;2023-02-03T08:12:36;34.83;;;31.93;;
14187;SDS011;7175;51.978;5.330;2023-02-03T08:15:04;35.47;;;32.57;;
14187;SDS011;7175;51.978;5.330;2023-02-03T08:17:33;34.13;;;31.27;;
14187;SDS011;7175;51.978;5.330;2023-02-03T08:20:01;33.67;;;30.87;;
14187;SDS011;7175;51.978;5.330;2023-02-03T08:22:31;34.57;;;31.67;;
14187;SDS011;7175;51.978;5.330;2023-02-03T08:24:59;32.70;;;29.90;;
14187;SDS011;7175;51.978;5.330;2023-02-03T08:27:27;32.50;;;29.70;;
14187;SDS011;7175;51.978;5.330;2023-02-03T08:29:55;33.43;;;30.63;;
14187;SDS011;7175;51.978;5.330;2023-02-03T08:32:24;34.10;;;31.23;;
14187;SDS011;7175;51.978;5.330;2023-02-03T08:34:52;34.17;;;31.27;;
14187;SDS011;7175;51.978;5.330;2023-02-03T08:37:22;34.73;;;31.83;;
14187;SDS011;7175;51.978;5.330;2023-02-03T08:39:52;34.43;;;31.53;;
14187;SDS011;7175;51.978;5.330;2023-02-03T08:42:20;36.50;;;33.50;;
14187;SDS011;7175;51.978;5.330;2023-02-03T08:44:48;34.70;;;31.80;;
14187;SDS011;7175;51.978;5.330;2023-02-03T08:47:16;34.77;;;31.87;;
14187;SDS011;7175;51.978;5.330;2023-02-03T08:49:45;36.00;;;33.10;;
14187;SDS011;7175;51.978;5.330;2023-02-03T08:52:13;37.10;;;34.10;;
14187;SDS011;7175;51.978;5.330;2023-02-03T08:54:44;36.67;;;33.67;;
14187;SDS011;7175;51.978;5.330;2023-02-03T08:57:14;36.10;;;33.13;;
14187;SDS011;7175;51.978;5.330;2023-02-03T08:59:42;36.50;;;33.50;;
14187;SDS011;7175;51.978;5.330;2023-02-03T09:02:12;38.10;;;35.10;;
14187;SDS011;7175;51.978;5.330;2023-02-03T09:04:43;38.37;;;35.37;;
14187;SDS011;7175;51.978;5.330;2023-02-03T09:07:12;36.17;;;33.27;;
14187;SDS011;7175;51.978;5.330;2023-02-03T09:09:41;37.33;;;34.40;;
14187;SDS011;7175;51.978;5.330;2023-02-03T09:12:09;36.10;;;33.20;;
14187;SDS011;7175;51.978;5.330;2023-02-03T09:14:40;33.77;;;31.00;;
14187;SDS011;7175;51.978;5.330;2023-02-03T09:17:08;33.83;;;31.07;;
14187;SDS011;7175;51.978;5.330;2023-02-03T09:19:37;35.40;;;32.57;;
14187;SDS011;7175;51.978;5.330;2023-02-03T09:22:06;35.27;;;32.47;;
14187;SDS011;7175;51.978;5.330;2023-02-03T09:24:35;35.13;;;32.33;;
14187;SDS011;7175;51.978;5.330;2023-02-03T09:27:03;34.00;;;31.23;;
14187;SDS011;7175;51.978;5.330;2023-02-03T09:29:32;33.07;;;30.37;;
14187;SDS011;7175;51.978;5.330;2023-02-03T09:32:02;32.33;;;29.63;;
14187;SDS011;7175;51.978;5.330;2023-02-03T09:34:34;31.80;;;29.20;;
14187;SDS011;7175;51.978;5.330;2023-02-03T09:37:03;31.87;;;29.27;;
14187;SDS011;7175;51.978;5.330;2023-02-03T09:39:31;31.63;;;29.03;;
14187;SDS011;7175;51.978;5.330;2023-02-03T09:44:57;30.43;;;27.93;;
14187;SDS011;7175;51.978;5.330;2023-02-03T09:47:39;29.90;;;27.40;;
14187;SDS011;7175;51.978;5.330;2023-02-03T09:50:11;28.37;;;25.97;;
14187;SDS011;7175;51.978;5.330;2023-02-03T09:52:42;29.47;;;27.07;;
14187;SDS011;7175;51.978;5.330;2023-02-03T09:55:15;29.47;;;27.07;;
14187;SDS011;7175;51.978;5.330;2023-02-03T09:57:57;30.00;;;27.50;;
14187;SDS011;7175;51.978;5.330;2023-02-03T10:00:32;30.40;;;27.90;;
14187;SDS011;7175;51.978;5.330;2023-02-03T10:03:06;29.10;;;26.70;;
14187;SDS011;7175;51.978;5.330;2023-02-03T10:08:35;29.40;;;27.00;;
14187;SDS011;7175;51.978;5.330;2023-02-03T10:11:16;31.20;;;28.40;;
14187;SDS011;7175;51.978;5.330;2023-02-03T10:13:53;29.50;;;27.10;;
14187;SDS011;7175;51.978;5.330;2023-02-03T10:16:34;30.07;;;27.57;;
14187;SDS011;7175;51.978;5.330;2023-02-03T10:19:11;29.10;;;26.70;;
14187;SDS011;7175;51.978;5.330;2023-02-03T10:21:47;29.03;;;26.63;;
14187;SDS011;7175;51.978;5.330;2023-02-03T10:24:21;28.97;;;26.57;;
14187;SDS011;7175;51.978;5.330;2023-02-03T10:26:54;28.60;;;26.20;;
14187;SDS011;7175;51.978;5.330;2023-02-03T10:29:25;28.57;;;26.17;;
14187;SDS011;7175;51.978;5.330;2023-02-03T10:32:00;28.47;;;26.07;;
14187;SDS011;7175;51.978;5.330;2023-02-03T10:34:30;28.10;;;25.80;;
14187;SDS011;7175;51.978;5.330;2023-02-03T10:36:59;27.90;;;25.57;;
14187;SDS011;7175;51.978;5.330;2023-02-03T10:39:35;28.13;;;25.83;;
14187;SDS011;7175;51.978;5.330;2023-02-03T10:42:09;28.03;;;25.73;;
14187;SDS011;7175;51.978;5.330;2023-02-03T10:44:39;29.20;;;26.40;;
14187;SDS011;7175;51.978;5.330;2023-02-03T10:47:14;28.17;;;25.87;;
14187;SDS011;7175;51.978;5.330;2023-02-03T10:49:49;27.57;;;25.27;;
14187;SDS011;7175;51.978;5.330;2023-02-03T10:52:27;27.60;;;25.30;;
14187;SDS011;7175;51.978;5.330;2023-02-03T10:54:56;28.17;;;25.87;;
14187;SDS011;7175;51.978;5.330;2023-02-03T10:57:27;28.40;;;25.90;;
14187;SDS011;7175;51.978;5.330;2023-02-03T11:00:04;27.77;;;25.47;;
14187;SDS011;7175;51.978;5.330;2023-02-03T11:02:53;27.80;;;25.50;;
14187;SDS011;7175;51.978;5.330;2023-02-03T11:05:24;26.53;;;24.33;;
14187;SDS011;7175;51.978;5.330;2023-02-03T11:07:52;26.57;;;24.30;;
14187;SDS011;7175;51.978;5.330;2023-02-03T11:10:28;26.30;;;24.10;;
14187;SDS011;7175;51.978;5.330;2023-02-03T11:13:10;26.30;;;24.10;;
14187;SDS011;7175;51.978;5.330;2023-02-03T11:15:43;25.67;;;23.47;;
14187;SDS011;7175;51.978;5.330;2023-02-03T11:18:31;25.07;;;22.87;;
14187;SDS011;7175;51.978;5.330;2023-02-03T11:21:07;26.00;;;23.80;;
14187;SDS011;7175;51.978;5.330;2023-02-03T11:23:41;25.50;;;23.30;;
14187;SDS011;7175;51.978;5.330;2023-02-03T11:26:12;26.37;;;24.07;;
14187;SDS011;7175;51.978;5.330;2023-02-03T11:28:44;24.33;;;22.23;;
14187;SDS011;7175;51.978;5.330;2023-02-03T11:31:15;24.90;;;22.80;;
14187;SDS011;7175;51.978;5.330;2023-02-03T11:33:50;24.93;;;22.83;;
14187;SDS011;7175;51.978;5.330;2023-02-03T11:36:23;24.53;;;22.43;;
14187;SDS011;7175;51.978;5.330;2023-02-03T11:39:01;24.30;;;22.20;;
14187;SDS011;7175;51.978;5.330;2023-02-03T11:41:43;24.27;;;22.17;;
14187;SDS011;7175;51.978;5.330;2023-02-03T11:44:14;24.33;;;22.23;;
14187;SDS011;7175;51.978;5.330;2023-02-03T11:46:47;25.30;;;23.20;;
14187;SDS011;7175;51.978;5.330;2023-02-03T11:55:31;24.13;;;22.03;;
14187;SDS011;7175;51.978;5.330;2023-02-03T11:58:12;24.87;;;22.77;;
14187;SDS011;7175;51.978;5.330;2023-02-03T12:00:52;24.07;;;21.97;;
14187;SDS011;7175;51.978;5.330;2023-02-03T12:03:42;23.57;;;21.53;;
14187;SDS011;7175;51.978;5.330;2023-02-03T12:06:40;23.07;;;21.07;;
14187;SDS011;7175;51.978;5.330;2023-02-03T12:09:31;24.13;;;22.03;;
14187;SDS011;7175;51.978;5.330;2023-02-03T12:15:19;22.33;;;20.43;;
14187;SDS011;7175;51.978;5.330;2023-02-03T12:18:06;22.80;;;20.80;;
14187;SDS011;7175;51.978;5.330;2023-02-03T12:20:44;22.67;;;20.67;;
14187;SDS011;7175;51.978;5.330;2023-02-03T12:23:24;22.57;;;20.57;;
14187;SDS011;7175;51.978;5.330;2023-02-03T12:26:04;23.40;;;21.40;;
14187;SDS011;7175;51.978;5.330;2023-02-03T12:28:44;23.27;;;21.27;;
14187;SDS011;7175;51.978;5.330;2023-02-03T12:31:23;23.63;;;21.63;;
14187;SDS011;7175;51.978;5.330;2023-02-03T12:33:59;23.97;;;21.87;;
14187;SDS011;7175;51.978;5.330;2023-02-03T12:36:35;23.97;;;21.87;;
14187;SDS011;7175;51.978;5.330;2023-02-03T12:39:10;23.97;;;21.87;;
14187;SDS011;7175;51.978;5.330;2023-02-03T12:41:43;24.57;;;22.47;;
14187;SDS011;7175;51.978;5.330;2023-02-03T12:44:20;25.33;;;23.23;;
14187;SDS011;7175;51.978;5.330;2023-02-03T12:46:54;25.57;;;23.37;;
14187;SDS011;7175;51.978;5.330;2023-02-03T12:49:29;25.50;;;23.30;;
14187;SDS011;7175;51.978;5.330;2023-02-03T12:52:10;24.87;;;22.67;;
14187;SDS011;7175;51.978;5.330;2023-02-03T12:54:43;25.27;;;23.07;;
14187;SDS011;7175;51.978;5.330;2023-02-03T12:57:18;26.27;;;24.07;;
14187;SDS011;7175;51.978;5.330;2023-02-03T12:59:55;27.03;;;24.73;;
14187;SDS011;7175;51.978;5.330;2023-02-03T13:02:34;28.80;;;26.40;;
14187;SDS011;7175;51.978;5.330;2023-02-03T13:05:16;30.13;;;27.63;;
14187;SDS011;7175;51.978;5.330;2023-02-03T13:07:50;29.57;;;27.07;;
14187;SDS011;7175;51.978;5.330;2023-02-03T13:10:25;30.07;;;27.47;;
14187;SDS011;7175;51.978;5.330;2023-02-03T13:12:59;31.17;;;28.57;;
14187;SDS011;7175;51.978;5.330;2023-02-03T13:15:31;32.97;;;30.17;;
14187;SDS011;7175;51.978;5.330;2023-02-03T13:18:04;36.63;;;33.63;;
14187;SDS011;7175;51.978;5.330;2023-02-03T13:20:41;36.07;;;33.00;;
14187;SDS011;7175;51.978;5.330;2023-02-03T13:23:12;38.27;;;35.17;;
14187;SDS011;7175;51.978;5.330;2023-02-03T13:25:48;35.80;;;32.80;;
14187;SDS011;7175;51.978;5.330;2023-02-03T13:28:31;33.33;;;30.53;;
14187;SDS011;7175;51.978;5.330;2023-02-03T13:31:20;36.50;;;33.60;;
14187;SDS011;7175;51.978;5.330;2023-02-03T13:34:10;37.87;;;34.87;;
14187;SDS011;7175;51.978;5.330;2023-02-03T13:40:07;44.07;;;40.57;;
14187;SDS011;7175;51.978;5.330;2023-02-03T13:42:43;46.37;;;42.70;;
14187;SDS011;7175;51.978;5.330;2023-02-03T13:45:16;47.53;;;43.73;;
14187;SDS011;7175;51.978;5.330;2023-02-03T13:47:53;46.50;;;42.77;;
14187;SDS011;7175;51.978;5.330;2023-02-03T13:50:24;48.53;;;44.63;;
14187;SDS011;7175;51.978;5.330;2023-02-03T13:52:56;49.13;;;45.23;;
14187;SDS011;7175;51.978;5.330;2023-02-03T13:55:28;51.00;;;46.40;;
14187;SDS011;7175;51.978;5.330;2023-02-03T13:57:59;49.80;;;45.90;;
14187;SDS011;7175;51.978;5.330;2023-02-03T14:03:45;50.77;;;46.77;;
14187;SDS011;7175;51.978;5.330;2023-02-03T14:09:22;48.10;;;44.40;;
14187;SDS011;7175;51.978;5.330;2023-02-03T14:14:57;47.97;;;44.07;;
14187;SDS011;7175;51.978;5.330;2023-02-03T14:20:52;42.00;;;38.70;;
14187;SDS011;7175;51.978;5.330;2023-02-03T14:23:26;43.30;;;39.90;;
14187;SDS011;7175;51.978;5.330;2023-02-03T14:26:01;40.97;;;37.77;;
14187;SDS011;7175;51.978;5.330;2023-02-03T14:28:35;41.73;;;38.53;;
14187;SDS011;7175;51.978;5.330;2023-02-03T14:31:07;40.90;;;37.70;;
14187;SDS011;7175;51.978;5.330;2023-02-03T14:36:44;38.47;;;35.57;;
14187;SDS011;7175;51.978;5.330;2023-02-03T14:42:56;38.70;;;35.80;;
14187;SDS011;7175;51.978;5.330;2023-02-03T14:48:51;38.13;;;35.23;;
14187;SDS011;7175;51.978;5.330;2023-02-03T14:51:34;38.33;;;35.43;;
14187;SDS011;7175;51.978;5.330;2023-02-03T14:54:25;38.83;;;35.83;;
14187;SDS011;7175;51.978;5.330;2023-02-03T14:57:08;39.07;;;36.07;;
14187;SDS011;7175;51.978;5.330;2023-02-03T14:59:47;40.17;;;37.07;;
14187;SDS011;7175;51.978;5.330;2023-02-03T15:02:20;39.23;;;36.23;;
14187;SDS011;7175;51.978;5.330;2023-02-03T15:04:51;38.33;;;35.37;;
14187;SDS011;7175;51.978;5.330;2023-02-03T15:07:42;38.47;;;35.47;;
14187;SDS011;7175;51.978;5.330;2023-02-03T15:10:14;38.30;;;35.33;;
14187;SDS011;7175;51.978;5.330;2023-02-03T15:12:45;38.43;;;34.80;;
14187;SDS011;7175;51.978;5.330;2023-02-03T15:15:18;37.17;;;34.27;;
14187;SDS011;7175;51.978;5.330;2023-02-03T15:17:48;38.40;;;35.40;;
14187;SDS011;7175;51.978;5.330;2023-02-03T15:20:24;38.80;;;35.80;;
14187;SDS011;7175;51.978;5.330;2023-02-03T15:23:00;37.03;;;34.13;;
14187;SDS011;7175;51.978;5.330;2023-02-03T15:25:29;36.57;;;33.77;;
14187;SDS011;7175;51.978;5.330;2023-02-03T15:28:12;34.17;;;31.47;;
14187;SDS011;7175;51.978;5.330;2023-02-03T15:30:48;35.60;;;32.83;;
14187;SDS011;7175;51.978;5.330;2023-02-03T15:33:21;35.67;;;32.87;;
14187;SDS011;7175;51.978;5.330;2023-02-03T15:35:50;34.27;;;31.57;;
14187;SDS011;7175;51.978;5.330;2023-02-03T15:38:26;34.13;;;31.43;;
14187;SDS011;7175;51.978;5.330;2023-02-03T15:40:57;34.53;;;31.83;;
14187;SDS011;7175;51.978;5.330;2023-02-03T15:43:27;34.90;;;32.20;;
14187;SDS011;7175;51.978;5.330;2023-02-03T15:46:01;35.37;;;32.67;;